createdAt,value
2023-02-06T00:02:09.830Z,-4.51
2023-02-06T00:06:12.914Z,-4.52
2023-02-06T00:10:16.351Z,-4.56
2023-02-06T00:14:20.728Z,-4.58
2023-02-06T00:18:23.791Z,-4.59
2023-02-06T00:22:26.816Z,-4.61
2023-02-06T00:26:31.345Z,-4.58
2023-02-06T00:30:36.013Z,-4.67
2023-02-06T00:34:39.327Z,-4.69
2023-02-06T00:38:42.789Z,-4.72
2023-02-06T00:42:45.885Z,-4.73
2023-02-06T00:46:50.768Z,-4.75
2023-02-06T00:50:54.801Z,-4.79
2023-02-06T00:54:57.825Z,-4.80
2023-02-06T00:59:01.118Z,-4.88
2023-02-06T01:03:05.694Z,-4.88
2023-02-06T01:07:08.741Z,-4.90
2023-02-06T01:11:13.369Z,-4.90
2023-02-06T01:15:16.536Z,-4.95
2023-02-06T01:19:21.036Z,-4.95
2023-02-06T01:23:26.026Z,-4.96
2023-02-06T01:27:29.461Z,-4.97
2023-02-06T01:31:34.301Z,-4.97
2023-02-06T01:35:41.769Z,-4.97
2023-02-06T01:39:44.998Z,-4.95
2023-02-06T01:44:10.644Z,-4.90
2023-02-06T01:48:18.227Z,-4.89
2023-02-06T01:52:30.439Z,-4.90
2023-02-06T01:56:38.081Z,-4.91
2023-02-06T02:00:41.254Z,-4.94
2023-02-06T02:04:45.382Z,-4.92
2023-02-06T02:08:53.690Z,-4.91
2023-02-06T02:12:57.249Z,-4.94
2023-02-06T02:17:11.864Z,-4.98
2023-02-06T02:21:48.024Z,-5.07
2023-02-06T02:26:28.427Z,-5.07
2023-02-06T02:30:52.019Z,-5.06
2023-02-06T02:35:12.725Z,-5.03
2023-02-06T02:39:24.497Z,-4.99
2023-02-06T02:43:39.688Z,-4.95
2023-02-06T02:47:47.766Z,-4.94
2023-02-06T02:51:52.974Z,-4.92
2023-02-06T02:55:56.303Z,-4.92
2023-02-06T03:00:02.151Z,-4.92
2023-02-06T03:04:13.809Z,-4.92
2023-02-06T03:08:27.209Z,-4.92
2023-02-06T03:12:40.437Z,-4.87
2023-02-06T03:16:47.712Z,-4.85
2023-02-06T03:20:52.628Z,-4.82
2023-02-06T03:24:59.955Z,-4.81
2023-02-06T03:29:06.377Z,-4.79
2023-02-06T03:33:12.181Z,-4.77
2023-02-06T03:37:16.284Z,-4.75
2023-02-06T03:41:26.713Z,-4.76
2023-02-06T03:45:32.929Z,-4.72
2023-02-06T03:49:40.497Z,-4.69
2023-02-06T03:53:46.284Z,-4.69
2023-02-06T03:57:53.957Z,-4.66
2023-02-06T04:01:59.702Z,-4.65
2023-02-06T04:06:03.003Z,-4.60
2023-02-06T04:10:06.923Z,-4.60
2023-02-06T04:14:11.484Z,-4.60
2023-02-06T04:18:14.702Z,-4.66
2023-02-06T04:22:18.164Z,-4.71
2023-02-06T04:26:21.178Z,-4.77
2023-02-06T04:30:26.045Z,-4.78
2023-02-06T04:34:29.188Z,-4.85
2023-02-06T04:38:32.231Z,-4.87
2023-02-06T04:42:35.278Z,-4.88
2023-02-06T04:46:39.705Z,-4.89
2023-02-06T04:50:42.742Z,-4.85
2023-02-06T04:54:45.746Z,-4.82
2023-02-06T04:58:48.979Z,-4.86
2023-02-06T05:02:53.464Z,-4.87
2023-02-06T05:06:56.593Z,-4.85
2023-02-06T05:10:59.679Z,-4.81
2023-02-06T05:15:02.959Z,-4.79
2023-02-06T05:19:07.713Z,-4.76
2023-02-06T05:23:11.176Z,-4.76
2023-02-06T05:27:14.355Z,-4.80
2023-02-06T05:31:19.880Z,-4.82
2023-02-06T05:35:25.069Z,-4.80
2023-02-06T05:39:28.457Z,-4.82
2023-02-06T05:43:31.504Z,-4.86
2023-02-06T05:47:34.501Z,-4.86
2023-02-06T05:51:38.938Z,-4.89
2023-02-06T05:55:41.928Z,-4.89
2023-02-06T05:59:44.946Z,-4.88
2023-02-06T06:03:48.092Z,-4.88
2023-02-06T06:07:52.560Z,-4.92
2023-02-06T06:11:55.587Z,-4.93
2023-02-06T06:15:58.746Z,-4.92
2023-02-06T06:20:01.961Z,-4.90
2023-02-06T06:24:06.926Z,-4.91
2023-02-06T06:28:10.232Z,-4.91
2023-02-06T06:32:13.327Z,-4.94
2023-02-06T06:36:16.496Z,-4.97
2023-02-06T06:40:21.024Z,-4.95
2023-02-06T06:44:24.074Z,-4.94
2023-02-06T06:48:27.365Z,-4.90
2023-02-06T06:52:30.429Z,-4.86
2023-02-06T06:56:34.923Z,-4.86
2023-02-06T07:00:38.769Z,-4.81
2023-02-06T07:04:41.952Z,-4.79
2023-02-06T07:08:45.067Z,-4.78
2023-02-06T07:12:49.682Z,-4.77
2023-02-06T07:16:52.930Z,-4.74
2023-02-06T07:20:56.170Z,-4.68
2023-02-06T07:24:59.235Z,-4.63
2023-02-06T07:29:03.760Z,-4.61
2023-02-06T07:33:07.124Z,-4.62
2023-02-06T07:37:10.140Z,-4.58
2023-02-06T07:41:13.149Z,-4.56
2023-02-06T07:45:18.113Z,-4.47
2023-02-06T07:49:21.125Z,-4.42
2023-02-06T07:53:24.841Z,-4.44
2023-02-06T07:57:27.933Z,-4.43
2023-02-06T08:01:32.639Z,-4.38
2023-02-06T08:05:39.178Z,-4.37
2023-02-06T08:09:42.701Z,-4.34
2023-02-06T08:13:46.446Z,-4.28
2023-02-06T08:17:50.816Z,-4.32
2023-02-06T08:21:54.033Z,-4.22
2023-02-06T08:26:03.704Z,-4.22
2023-02-06T08:30:07.652Z,-4.21
2023-02-06T08:34:14.902Z,-4.17
2023-02-06T08:38:17.853Z,-4.12
2023-02-06T08:42:20.795Z,-4.00
2023-02-06T08:46:25.981Z,-3.96
2023-02-06T08:50:30.264Z,-3.90
2023-02-06T08:54:36.010Z,-3.82
2023-02-06T08:58:40.272Z,-3.81
2023-02-06T09:02:43.300Z,-3.80
2023-02-06T09:06:48.960Z,-3.77
2023-02-06T09:10:52.050Z,-3.69
2023-02-06T09:14:55.021Z,-3.59
2023-02-06T09:19:01.383Z,-3.59
2023-02-06T09:23:05.962Z,-3.53
2023-02-06T09:27:08.879Z,-3.42
2023-02-06T09:31:12.578Z,-3.30
2023-02-06T09:35:15.718Z,-3.24
2023-02-06T09:39:20.012Z,-3.18
2023-02-06T09:43:24.000Z,-3.18
2023-02-06T09:47:29.896Z,-3.14
2023-02-06T09:51:50.615Z,-3.25
2023-02-06T09:56:02.131Z,-3.25
2023-02-06T10:00:12.672Z,-3.16
2023-02-06T10:04:34.908Z,-2.93
2023-02-06T10:08:40.890Z,-2.96
2023-02-06T10:12:48.621Z,-2.85
2023-02-06T10:16:54.886Z,-2.74
2023-02-06T10:21:01.486Z,-2.80
2023-02-06T10:25:20.653Z,-2.74
2023-02-06T10:29:28.557Z,-2.77
2023-02-06T10:33:41.885Z,-2.81
2023-02-06T10:38:41.707Z,-2.84
2023-02-06T10:42:54.476Z,-2.86
2023-02-06T10:47:00.374Z,-2.86
2023-02-06T10:51:13.295Z,-2.84
2023-02-06T10:55:21.140Z,-2.83
2023-02-06T10:59:29.933Z,-2.78
2023-02-06T11:03:39.854Z,-2.68
2023-02-06T11:07:47.389Z,-2.65
2023-02-06T11:11:51.960Z,-2.69
2023-02-06T11:16:01.449Z,-2.72
2023-02-06T11:20:20.251Z,-2.67
2023-02-06T11:24:25.372Z,-2.63
2023-02-06T11:28:28.514Z,-2.59
2023-02-06T11:32:36.690Z,-2.51
2023-02-06T11:36:42.247Z,-2.50
2023-02-06T11:40:54.786Z,-2.49
2023-02-06T11:44:57.776Z,-2.46
2023-02-06T11:49:07.407Z,-2.26
2023-02-06T11:53:17.193Z,-2.13
2023-02-06T11:57:22.453Z,-2.06
2023-02-06T12:01:25.410Z,-2.01
2023-02-06T12:05:33.839Z,-1.92
2023-02-06T12:09:38.140Z,-1.85
2023-02-06T12:13:45.262Z,-1.80
2023-02-06T12:17:56.484Z,-1.64
2023-02-06T12:22:05.087Z,-1.50
2023-02-06T12:26:14.589Z,-1.47
2023-02-06T12:30:30.684Z,-1.52
2023-02-06T12:34:48.639Z,-1.48
2023-02-06T12:38:56.284Z,-1.51
2023-02-06T12:43:04.202Z,-1.46
2023-02-06T12:47:15.083Z,-1.08
2023-02-06T12:51:25.397Z,-1.00
2023-02-06T12:55:32.926Z,-0.98
2023-02-06T13:00:06.708Z,-1.08
2023-02-06T13:04:14.816Z,-1.15
2023-02-06T13:08:21.271Z,-1.23
2023-02-06T13:12:26.411Z,-1.29
2023-02-06T13:16:52.042Z,-1.35
2023-02-06T13:21:18.460Z,-1.38
2023-02-06T13:25:54.178Z,-1.40
2023-02-06T13:29:57.256Z,-1.38
2023-02-06T13:34:06.962Z,-1.27
2023-02-06T13:38:28.426Z,-1.21
2023-02-06T13:42:40.719Z,-1.21
2023-02-06T13:47:19.981Z,-1.16
2023-02-06T13:51:48.503Z,-1.18
2023-02-06T13:56:08.992Z,-1.03
2023-02-06T14:00:16.998Z,-1.19
2023-02-06T14:04:25.120Z,-1.30
2023-02-06T14:08:40.730Z,-1.38
2023-02-06T14:12:57.840Z,-1.39
2023-02-06T14:17:10.441Z,-1.41
2023-02-06T14:21:26.045Z,-1.39
2023-02-06T14:25:44.560Z,-1.35
2023-02-06T14:29:53.498Z,-1.28
2023-02-06T14:34:14.715Z,-1.27
2023-02-06T14:38:50.451Z,-1.23
2023-02-06T14:42:58.185Z,-1.23
2023-02-06T14:47:01.152Z,-1.29
2023-02-06T14:51:04.480Z,-1.37
2023-02-06T14:55:39.986Z,-1.35
2023-02-06T14:59:53.527Z,-1.17
2023-02-06T15:04:11.175Z,-1.27
2023-02-06T15:08:18.930Z,-1.31
2023-02-06T15:12:24.981Z,-1.38
2023-02-06T15:16:30.560Z,-1.42
2023-02-06T15:20:40.191Z,-1.46
2023-02-06T15:24:57.085Z,-1.48
2023-02-06T15:29:02.067Z,-1.53
2023-02-06T15:33:10.705Z,-1.56
2023-02-06T15:37:33.510Z,-1.64
2023-02-06T15:41:37.198Z,-1.68
2023-02-06T15:45:42.076Z,-1.77
2023-02-06T15:49:49.466Z,-1.79
2023-02-06T15:53:54.061Z,-1.79
2023-02-06T15:57:58.648Z,-1.85
2023-02-06T16:02:03.740Z,-1.85
2023-02-06T16:06:15.105Z,-1.89
2023-02-06T16:10:23.446Z,-1.91
2023-02-06T16:14:34.294Z,-1.91
2023-02-06T16:18:39.056Z,-1.89
2023-02-06T16:22:43.513Z,-1.88
2023-02-06T16:26:48.348Z,-1.84
2023-02-06T16:30:56.494Z,-1.78
2023-02-06T16:35:01.204Z,-1.71
2023-02-06T16:39:05.647Z,-1.70
2023-02-06T16:43:11.904Z,-1.69
2023-02-06T16:47:17.114Z,-1.72
2023-02-06T16:51:23.467Z,-1.83
2023-02-06T16:55:28.920Z,-1.83
2023-02-06T16:59:31.950Z,-1.79
2023-02-06T17:03:37.903Z,-1.85
2023-02-06T17:07:41.025Z,-1.84
2023-02-06T17:11:45.663Z,-1.88
2023-02-06T17:15:53.154Z,-1.92
2023-02-06T17:19:56.282Z,-1.96
2023-02-06T17:23:59.892Z,-1.94
2023-02-06T17:28:06.997Z,-1.92
2023-02-06T17:32:10.115Z,-1.89
2023-02-06T17:36:17.070Z,-1.87
2023-02-06T17:40:22.019Z,-1.82
2023-02-06T17:44:26.399Z,-1.78
2023-02-06T17:48:29.328Z,-1.79
2023-02-06T17:52:32.419Z,-1.78
2023-02-06T17:56:36.252Z,-1.78
2023-02-06T18:00:40.650Z,-1.81
2023-02-06T18:04:44.208Z,-1.80
2023-02-06T18:08:47.235Z,-1.81
2023-02-06T18:12:50.464Z,-1.78
2023-02-06T18:16:54.823Z,-1.73
2023-02-06T18:20:58.023Z,-1.71
2023-02-06T18:25:03.321Z,-1.73
2023-02-06T18:29:07.000Z,-1.76
2023-02-06T18:33:12.825Z,-1.80
2023-02-06T18:37:15.857Z,-1.80
2023-02-06T18:41:36.565Z,-1.82
2023-02-06T18:45:40.485Z,-1.89
2023-02-06T18:49:44.969Z,-2.02
2023-02-06T18:53:47.881Z,-2.11
2023-02-06T18:57:51.660Z,-2.18
2023-02-06T19:01:54.919Z,-2.24
2023-02-06T19:05:59.574Z,-2.27
2023-02-06T19:10:04.650Z,-2.40
2023-02-06T19:14:09.189Z,-2.50
2023-02-06T19:18:12.048Z,-2.58
2023-02-06T19:22:16.900Z,-2.68
2023-02-06T19:26:19.840Z,-2.79
2023-02-06T19:30:22.887Z,-2.88
2023-02-06T19:34:25.902Z,-2.96
2023-02-06T19:38:30.292Z,-3.03
2023-02-06T19:42:33.202Z,-3.16
2023-02-06T19:46:37.135Z,-3.19
2023-02-06T19:50:40.741Z,-3.19
2023-02-06T19:54:45.220Z,-3.18
2023-02-06T19:58:48.812Z,-3.21
2023-02-06T20:02:52.140Z,-3.23
2023-02-06T20:06:55.902Z,-3.23
2023-02-06T20:11:04.875Z,-3.22
2023-02-06T20:15:08.654Z,-3.22
2023-02-06T20:19:15.546Z,-3.24
2023-02-06T20:23:18.473Z,-3.23
2023-02-06T20:27:22.888Z,-3.27
2023-02-06T20:31:26.626Z,-3.29
2023-02-06T20:35:29.951Z,-3.30
2023-02-06T20:39:33.133Z,-3.36
2023-02-06T20:43:37.514Z,-3.39
2023-02-06T20:47:40.705Z,-3.43
2023-02-06T20:51:45.347Z,-3.43
2023-02-06T20:55:48.260Z,-3.46
2023-02-06T20:59:52.806Z,-3.49
2023-02-06T21:03:58.097Z,-3.62
2023-02-06T21:08:01.328Z,-3.81
2023-02-06T21:12:04.801Z,-3.87
2023-02-06T21:16:13.371Z,-3.92
2023-02-06T21:20:16.536Z,-3.99
2023-02-06T21:24:20.002Z,-4.02
2023-02-06T21:28:23.621Z,-3.97
2023-02-06T21:32:27.965Z,-3.94
2023-02-06T21:36:31.459Z,-3.94
2023-02-06T21:40:35.955Z,-3.96
2023-02-06T21:44:39.161Z,-3.96
2023-02-06T21:48:43.691Z,-3.99
2023-02-06T21:52:46.600Z,-4.03
2023-02-06T21:56:49.584Z,-4.13
2023-02-06T22:00:53.038Z,-4.20
2023-02-06T22:04:59.706Z,-4.24
2023-02-06T22:09:07.488Z,-4.29
2023-02-06T22:13:10.526Z,-4.31
2023-02-06T22:17:13.971Z,-4.29
2023-02-06T22:21:23.049Z,-4.24
2023-02-06T22:25:28.551Z,-4.21
2023-02-06T22:29:35.405Z,-4.20
2023-02-06T22:33:39.949Z,-4.17
2023-02-06T22:37:44.702Z,-4.22
2023-02-06T22:41:50.007Z,-4.23
2023-02-06T22:45:53.023Z,-4.25
2023-02-06T22:49:55.936Z,-4.29
2023-02-06T22:54:00.604Z,-4.32
2023-02-06T22:58:03.535Z,-4.45
2023-02-06T23:02:06.924Z,-4.52
2023-02-06T23:06:11.842Z,-4.62
2023-02-06T23:10:16.743Z,-4.70
2023-02-06T23:14:20.160Z,-4.76
2023-02-06T23:18:23.334Z,-4.77
2023-02-06T23:22:26.205Z,-4.76
2023-02-06T23:26:31.382Z,-4.76
2023-02-06T23:30:34.306Z,-4.73
2023-02-06T23:34:39.146Z,-4.69
2023-02-06T23:38:43.634Z,-4.71
2023-02-06T23:42:47.956Z,-4.79
2023-02-06T23:46:50.880Z,-4.76
2023-02-06T23:50:53.926Z,-4.79
2023-02-06T23:54:56.829Z,-4.82
2023-02-06T23:59:02.756Z,-4.92
